Time;durP1;ratioP1;P1;durP2;ratioP2;P2;SDS_P1;SDS_P2;PMS_P1;PMS_P2;Temp;Humidity;BMP_temperature;BMP_pressure;BME280_temperature;BME280_humidity;BME280_pressure;Samples;Min_cycle;Max_cycle;Signal;HPM_P1;HPM_P2
2023/05/20 00:02:01;;;;;;;17.30;12.83;;;;;;;11.07;100.00;93128.78;5071657;28;20230;-71
2023/05/20 00:04:27;;;;;;;14.57;13.10;;;;;;;11.02;100.00;93134.03;5071312;28;20228;-72
2023/05/20 00:06:53;;;;;;;14.23;13.03;;;;;;;10.95;100.00;93125.72;5071808;28;20186;-71
2023/05/20 00:09:19;;;;;;;14.10;12.80;;;;;;;10.81;100.00;93095.19;5071887;28;20201;-71
2023/05/20 00:11:45;;;;;;;13.97;12.90;;;;;;;11.00;100.00;93130.13;5070923;28;20225;-70
2023/05/20 00:14:11;;;;;;;13.37;12.47;;;;;;;10.97;100.00;93131.44;5071596;28;21192;-71
2023/05/20 00:16:36;;;;;;;13.63;12.63;;;;;;;11.03;100.00;93132.19;5071053;28;20222;-71
2023/05/20 00:19:01;;;;;;;14.17;13.03;;;;;;;11.00;100.00;93130.88;5053969;28;20196;-71
2023/05/20 00:21:27;;;;;;;13.50;12.23;;;;;;;10.89;100.00;93129.41;5071412;28;20234;-71
2023/05/20 00:23:52;;;;;;;15.30;13.70;;;;;;;10.90;100.00;93122.31;5071477;28;20221;-71
2023/05/20 00:26:18;;;;;;;15.40;13.97;;;;;;;10.79;100.00;93134.66;5070785;28;20230;-71
2023/05/20 00:28:43;;;;;;;13.90;12.80;;;;;;;10.67;100.00;93133.38;5070391;28;20188;-71
2023/05/20 00:31:08;;;;;;;13.80;12.60;;;;;;;10.68;100.00;93140.16;5070291;28;20209;-72
2023/05/20 00:33:35;;;;;;;13.47;12.37;;;;;;;10.60;100.00;93125.06;5071206;28;20211;-71
2023/05/20 00:36:00;;;;;;;14.57;13.37;;;;;;;10.59;100.00;93132.09;5070221;28;21248;-70
2023/05/20 00:38:26;;;;;;;14.73;13.53;;;;;;;10.51;100.00;93131.84;5071047;28;20271;-71
2023/05/20 00:40:51;;;;;;;15.20;13.83;;;;;;;10.56;100.00;93124.78;5069924;28;20217;-70
2023/05/20 00:43:17;;;;;;;14.80;13.47;;;;;;;10.48;100.00;93117.50;5071032;28;20197;-71
2023/05/20 00:45:42;;;;;;;15.03;12.67;;;;;;;10.48;100.00;93101.84;5070120;28;20233;-71
2023/05/20 00:48:08;;;;;;;13.97;12.83;;;;;;;10.56;100.00;93110.94;5071182;28;20195;-71
2023/05/20 00:50:34;;;;;;;13.83;12.73;;;;;;;10.68;100.00;93101.78;5070415;28;20892;-71
2023/05/20 00:53:00;;;;;;;15.83;14.17;;;;;;;10.65;100.00;93099.69;5070713;28;20244;-71
2023/05/20 00:55:26;;;;;;;14.00;12.90;;;;;;;10.68;100.00;93096.56;5070208;28;20221;-71
2023/05/20 00:57:52;;;;;;;15.13;13.83;;;;;;;10.71;100.00;93103.06;5070843;28;20303;-71
2023/05/20 01:00:17;;;;;;;13.50;12.40;;;;;;;10.55;100.00;93088.50;5052703;28;20230;-71
2023/05/20 01:02:43;;;;;;;13.83;12.47;;;;;;;10.35;100.00;93078.91;5070911;28;20226;-70
2023/05/20 01:05:08;;;;;;;14.73;13.43;;;;;;;10.56;100.00;93090.06;5069789;28;20226;-71
2023/05/20 01:07:34;;;;;;;15.67;13.20;;;;;;;10.58;100.00;93098.41;5070620;28;20178;-71
2023/05/20 01:10:00;;;;;;;13.47;12.47;;;;;;;10.54;100.00;93095.56;5069734;28;20221;-71
2023/05/20 01:12:40;;;;;;;16.83;13.43;;;;;;;10.52;100.00;93087.19;5070360;28;20188;-71
2023/05/20 01:15:10;;;;;;;13.87;12.67;;;;;;;10.65;100.00;93098.91;5069881;28;20230;-71
2023/05/20 01:17:39;;;;;;;15.73;12.90;;;;;;;10.60;100.00;93096.34;5070696;28;20591;-71
2023/05/20 01:20:09;;;;;;;14.27;13.00;;;;;;;10.59;100.00;93095.53;5070165;28;20214;-70
2023/05/20 01:22:36;;;;;;;14.50;13.30;;;;;;;10.54;100.00;93111.22;5070304;28;20181;-70
2023/05/20 01:25:02;;;;;;;14.73;13.53;;;;;;;10.53;100.00;93122.72;5069531;28;20217;-70
2023/05/20 01:27:29;;;;;;;14.90;13.50;;;;;;;10.43;100.00;93120.13;5070177;28;20183;-71
2023/05/20 01:29:54;;;;;;;13.87;12.77;;;;;;;10.36;100.00;93113.59;5069502;28;20222;-72
2023/05/20 01:32:25;;;;;;;14.53;13.13;;;;;;;10.36;100.00;93124.84;5069331;28;20167;-71
2023/05/20 01:34:52;;;;;;;14.33;13.13;;;;;;;10.39;100.00;93113.88;5069796;28;20225;-70
2023/05/20 01:37:22;;;;;;;15.57;14.07;;;;;;;10.31;100.00;93119.63;5070093;28;20193;-71
2023/05/20 01:39:49;;;;;;;14.50;13.30;;;;;;;10.10;100.00;93119.91;5069173;28;20257;-71
2023/05/20 01:42:15;;;;;;;14.77;13.43;;;;;;;10.29;100.00;93113.88;5069997;28;20268;-71
2023/05/20 01:44:41;;;;;;;14.57;13.13;;;;;;;10.07;100.00;93094.34;5069759;28;20214;-70
2023/05/20 01:47:06;;;;;;;15.47;13.47;;;;;;;10.10;100.00;93096.44;5069975;28;20197;-69
2023/05/20 01:49:32;;;;;;;14.70;13.27;;;;;;;10.16;100.00;93088.34;5069463;28;20179;-71
2023/05/20 01:51:58;;;;;;;15.50;13.90;;;;;;;10.28;100.00;93091.44;5069926;28;20190;-70
2023/05/20 01:54:23;;;;;;;17.17;14.37;;;;;;;10.15;100.00;93070.34;5069222;28;20195;-72
2023/05/20 01:56:49;;;;;;;14.50;13.20;;;;;;;10.32;100.00;93082.03;5052409;28;20253;-71
2023/05/20 01:59:14;;;;;;;12.87;11.87;;;;;;;10.52;100.00;93099.50;5069650;28;20225;-71
2023/05/20 02:01:40;;;;;;;15.20;13.93;;;;;;;10.48;100.00;93107.06;5068646;28;20225;-71
2023/05/20 02:04:05;;;;;;;14.97;13.73;;;;;;;10.41;100.00;93103.16;5069782;28;20213;-71
2023/05/20 02:06:31;;;;;;;15.67;14.07;;;;;;;10.15;100.00;93063.28;5068879;28;20244;-72
2023/05/20 02:08:56;;;;;;;15.67;14.37;;;;;;;10.36;100.00;93093.53;5069772;28;20222;-71
2023/05/20 02:11:21;;;;;;;14.50;13.20;;;;;;;10.29;100.00;93066.91;5069141;28;20277;-71
2023/05/20 02:13:49;;;;;;;14.30;12.80;;;;;;;10.40;100.00;93084.09;5069729;28;20197;-71
2023/05/20 02:16:14;;;;;;;14.83;13.63;;;;;;;10.32;100.00;93095.09;5068863;28;20229;-71
2023/05/20 02:18:41;;;;;;;13.83;12.83;;;;;;;10.44;100.00;93090.38;5069833;28;20194;-71
2023/05/20 02:21:06;;;;;;;15.60;14.30;;;;;;;10.34;100.00;93095.59;5069160;28;20217;-71
2023/05/20 02:23:32;;;;;;;19.77;14.10;;;;;;;10.37;100.00;93089.06;5069715;28;20208;-71
2023/05/20 02:25:58;;;;;;;14.60;13.10;;;;;;;10.33;100.00;93096.66;5068551;28;20242;-72
2023/05/20 02:28:23;;;;;;;15.67;14.03;;;;;;;10.38;100.00;93098.47;5069588;28;20187;-71
2023/05/20 02:30:52;;;;;;;14.20;12.87;;;;;;;10.35;100.00;93091.94;5068866;28;20230;-71
2023/05/20 02:33:18;;;;;;;15.90;14.37;;;;;;;10.30;100.00;93084.16;5069476;28;20196;-71
2023/05/20 02:35:43;;;;;;;14.07;12.77;;;;;;;10.18;100.00;93075.03;5068598;28;20238;-71
2023/05/20 02:38:12;;;;;;;13.97;12.77;;;;;;;10.22;100.00;93087.28;5051888;28;20215;-71
2023/05/20 02:40:38;;;;;;;14.60;13.10;;;;;;;10.23;100.00;93088.06;5068941;28;20240;-71
2023/05/20 02:43:03;;;;;;;14.83;13.43;;;;;;;10.03;100.00;93073.19;5069645;28;20183;-71
2023/05/20 02:45:29;;;;;;;14.53;13.40;;;;;;;10.21;100.00;93087.56;5068762;28;20231;-72
2023/05/20 02:47:55;;;;;;;15.27;13.97;;;;;;;9.95;100.00;93086.78;5069160;28;20253;-71
2023/05/20 02:50:20;;;;;;;15.90;14.43;;;;;;;9.69;100.00;93064.38;5068981;28;20303;-70
2023/05/20 02:52:46;;;;;;;15.23;13.97;;;;;;;10.00;100.00;93078.94;5071131;28;20272;-70
2023/05/20 02:55:11;;;;;;;16.40;14.30;;;;;;;9.88;100.00;93065.41;5072551;28;20221;-71
2023/05/20 02:57:37;;;;;;;17.20;15.50;;;;;;;9.88;100.00;93069.84;5073062;28;20257;-69
2023/05/20 03:00:09;;;;;;;17.33;14.57;;;;;;;10.07;100.00;93083.91;5072450;28;20299;-71
2023/05/20 03:02:35;;;;;;;15.90;14.37;;;;;;;10.11;100.00;93084.94;5073020;28;20182;-70
2023/05/20 03:05:01;;;;;;;15.93;14.43;;;;;;;10.01;100.00;93058.88;5072289;28;20229;-71
2023/05/20 03:07:27;;;;;;;16.00;14.53;;;;;;;10.18;100.00;93081.03;5072711;28;20208;-71
2023/05/20 03:09:52;;;;;;;15.80;14.03;;;;;;;10.20;100.00;93070.31;5071921;28;20287;-71
2023/05/20 03:12:18;;;;;;;14.87;13.40;;;;;;;10.37;100.00;93092.47;5072665;28;20203;-72
2023/05/20 03:14:43;;;;;;;14.47;13.37;;;;;;;10.49;100.00;93087.72;5072349;28;20229;-71
2023/05/20 03:17:09;;;;;;;14.47;13.37;;;;;;;11.03;100.00;93108.69;5072321;28;20205;-71
2023/05/20 03:19:35;;;;;;;13.67;12.53;;;;;;;11.23;100.00;93087.69;5071880;28;20189;-70
2023/05/20 03:22:00;;;;;;;15.13;13.77;;;;;;;11.30;100.00;93102.00;5072559;28;20243;-72
2023/05/20 03:24:27;;;;;;;13.93;12.50;;;;;;;11.22;100.00;93102.56;5071802;28;20241;-71
2023/05/20 03:26:52;;;;;;;13.73;12.73;;;;;;;11.73;100.00;93107.50;5072570;28;20178;-71
2023/05/20 03:29:18;;;;;;;14.37;13.23;;;;;;;11.66;100.00;93113.03;5072237;28;20208;-71
2023/05/20 03:31:43;;;;;;;13.40;11.97;;;;;;;11.83;100.00;93108.22;5072177;28;20304;-71
2023/05/20 03:34:08;;;;;;;14.53;13.37;;;;;;;12.11;100.00;93125.03;5072426;28;20224;-71
2023/05/20 03:36:34;;;;;;;15.20;11.83;;;;;;;12.28;100.00;93115.69;5071644;28;20230;-71
2023/05/20 03:39:00;;;;;;;12.80;11.53;;;;;;;12.74;100.00;93103.69;5068994;28;20258;-72
2023/05/20 03:41:26;;;;;;;13.97;12.63;;;;;;;12.98;100.00;93119.38;5071721;28;20221;-71
2023/05/20 03:43:53;;;;;;;13.90;12.90;;;;;;;12.84;100.00;93116.69;5071809;28;20213;-70
2023/05/20 03:46:18;;;;;;;12.43;11.30;;;;;;;12.78;100.00;93104.69;5072000;28;20238;-71
2023/05/20 03:48:44;;;;;;;12.53;11.30;;;;;;;12.95;100.00;93128.59;5072296;28;20193;-70
2023/05/20 03:51:09;;;;;;;13.90;12.60;;;;;;;13.09;100.00;93126.09;5071961;28;20220;-71
2023/05/20 03:53:34;;;;;;;13.80;12.40;;;;;;;13.23;100.00;93132.22;5071607;28;20198;-71
2023/05/20 03:56:00;;;;;;;13.93;12.63;;;;;;;12.99;100.00;93123.59;5071742;28;20260;-71
2023/05/20 03:58:28;;;;;;;12.53;11.53;;;;;;;12.92;100.00;93141.47;5072067;28;20182;-71
2023/05/20 04:00:54;;;;;;;13.83;12.47;;;;;;;12.37;100.00;93121.13;5071398;28;20225;-71
2023/05/20 04:03:19;;;;;;;13.83;12.83;;;;;;;12.74;100.00;93143.00;5071756;28;20256;-70
2023/05/20 04:05:45;;;;;;;13.80;12.67;;;;;;;13.68;100.00;93125.63;5071229;28;20230;-71
2023/05/20 04:08:12;;;;;;;13.37;12.27;;;;;;;14.82;94.02;93147.69;5071435;28;20267;-71
2023/05/20 04:10:41;;;;;;;14.17;12.87;;;;;;;14.74;92.55;93158.88;5071402;28;20225;-72
2023/05/20 04:13:07;;;;;;;14.67;13.17;;;;;;;14.29;93.68;93142.00;5071440;28;20177;-71
2023/05/20 04:15:35;;;;;;;14.37;13.10;;;;;;;13.86;91.57;93154.47;5071374;28;20234;-72
2023/05/20 04:18:00;;;;;;;14.57;13.20;;;;;;;14.00;96.52;93159.78;5071469;28;20194;-71
2023/05/20 04:20:26;;;;;;;13.70;12.60;;;;;;;14.07;96.10;93153.09;5071142;28;20221;-69
2023/05/20 04:22:52;;;;;;;14.67;13.37;;;;;;;13.66;93.39;93152.13;5071605;28;20178;-71
2023/05/20 04:25:18;;;;;;;14.93;13.37;;;;;;;13.76;93.39;93157.22;5071081;28;20237;-71
2023/05/20 04:27:44;;;;;;;15.40;14.00;;;;;;;14.64;91.29;93157.19;5071089;28;20235;-70
2023/05/20 04:30:10;;;;;;;14.13;12.83;;;;;;;14.21;90.83;93153.91;5070872;28;20217;-71
2023/05/20 04:32:36;;;;;;;15.40;13.97;;;;;;;14.33;91.53;93150.88;5071385;28;20193;-71
2023/05/20 04:35:01;;;;;;;16.30;14.57;;;;;;;13.59;95.47;93138.56;5070765;28;20221;-72
2023/05/20 04:37:27;;;;;;;16.77;14.73;;;;;;;13.98;94.21;93146.16;5070705;28;20189;-71
2023/05/20 04:39:53;;;;;;;15.50;14.10;;;;;;;14.37;93.64;93143.97;5070497;28;20217;-71
2023/05/20 04:42:21;;;;;;;16.23;14.63;;;;;;;14.59;93.02;93145.97;5071225;28;20192;-72
2023/05/20 04:44:47;;;;;;;16.47;14.77;;;;;;;14.82;92.61;93145.06;5070507;28;20232;-71
2023/05/20 04:47:13;;;;;;;15.90;14.43;;;;;;;15.00;90.31;93150.22;5071105;28;20193;-71
2023/05/20 04:49:39;;;;;;;16.30;14.27;;;;;;;15.01;89.64;93158.88;5070296;28;20201;-71
2023/05/20 04:52:04;;;;;;;15.43;13.97;;;;;;;15.26;90.11;93166.28;5071180;28;20257;-71
2023/05/20 04:54:31;;;;;;;15.70;14.40;;;;;;;15.37;88.20;93133.44;5070337;28;20192;-71
2023/05/20 04:56:57;;;;;;;15.37;13.97;;;;;;;17.27;82.47;93186.16;5069524;28;20173;-71
2023/05/20 04:59:23;;;;;;;18.57;14.60;;;;;;;19.18;73.37;93181.13;5070676;28;20249;-71
2023/05/20 05:01:48;;;;;;;18.47;14.63;;;;;;;20.88;65.83;93194.41;5057822;28;20189;-72
2023/05/20 05:04:14;;;;;;;14.10;12.77;;;;;;;20.93;63.25;93194.19;5070327;28;20255;-71
2023/05/20 05:06:39;;;;;;;15.10;13.70;;;;;;;19.39;69.03;93176.72;5069946;28;20220;-71
2023/05/20 05:09:05;;;;;;;15.93;14.33;;;;;;;19.18;70.94;93189.06;5070541;28;20212;-71
2023/05/20 05:11:30;;;;;;;15.03;13.60;;;;;;;18.75;72.47;93183.09;5069876;28;20221;-72
2023/05/20 05:13:56;;;;;;;13.63;12.43;;;;;;;17.03;74.65;93175.97;5070685;28;20182;-71
2023/05/20 05:16:21;;;;;;;14.47;13.17;;;;;;;17.85;76.53;93185.88;5069356;28;20283;-72
2023/05/20 05:18:46;;;;;;;13.63;12.30;;;;;;;18.05;73.41;93185.28;5070518;28;20210;-71
2023/05/20 05:21:12;;;;;;;14.13;12.83;;;;;;;20.22;67.79;93164.38;5069838;28;20218;-71
2023/05/20 05:23:37;;;;;;;13.47;12.17;;;;;;;21.98;60.45;93195.03;5070548;28;20211;-72
2023/05/20 05:26:03;;;;;;;13.30;12.20;;;;;;;21.56;62.15;93191.78;5057396;28;20813;-71
2023/05/20 05:28:28;;;;;;;13.27;12.20;;;;;;;21.62;62.14;93193.13;5070515;28;20196;-72
2023/05/20 05:30:55;;;;;;;13.07;12.07;;;;;;;21.66;60.85;93187.94;5069630;28;20329;-71
2023/05/20 05:33:20;;;;;;;12.30;11.37;;;;;;;21.40;62.09;93182.91;5069183;28;20224;-71
2023/05/20 05:35:46;;;;;;;12.47;11.20;;;;;;;21.21;62.66;93171.28;5069472;28;20228;-71
2023/05/20 05:38:11;;;;;;;12.18;11.27;;;;;;;22.31;55.90;93184.22;5069765;28;20205;-71
2023/05/20 05:40:37;;;;;;;12.27;11.00;;;;;;;24.25;52.19;93180.13;5068195;28;20232;-72
2023/05/20 05:43:03;;;;;;;12.55;10.85;;;;;;;25.14;48.68;93186.91;5069989;28;20186;-71
2023/05/20 05:45:28;;;;;;;11.68;10.75;;;;;;;24.61;47.25;93179.72;5069434;28;20230;-71
2023/05/20 05:47:53;;;;;;;10.98;10.18;;;;;;;27.48;41.58;93183.44;5069990;28;20184;-71
2023/05/20 05:50:19;;;;;;;10.93;10.02;;;;;;;31.20;32.44;93189.09;5069526;28;20229;-71
2023/05/20 05:52:45;;;;;;;10.55;9.75;;;;;;;31.68;30.28;93192.72;5070154;28;20199;-71
2023/05/20 05:55:11;;;;;;;10.90;9.90;;;;;;;32.25;31.19;93188.44;5069711;28;20233;-72
2023/05/20 05:57:36;;;;;;;10.80;9.70;;;;;;;33.22;27.97;93195.19;5070036;28;20264;-71
2023/05/20 06:00:03;;;;;;;10.05;9.27;;;;;;;33.10;26.32;93198.44;5069219;28;20221;-72
2023/05/20 06:02:29;;;;;;;10.85;9.68;;;;;;;32.44;28.54;93195.25;5070416;28;20186;-72
2023/05/20 06:04:54;;;;;;;10.05;9.30;;;;;;;33.16;27.80;93202.22;5069025;28;20232;-72
2023/05/20 06:07:19;;;;;;;10.43;8.88;;;;;;;33.59;26.49;93209.44;5069907;28;20252;-71
2023/05/20 06:09:45;;;;;;;10.45;9.38;;;;;;;31.04;29.46;93180.69;5068180;28;20224;-72
2023/05/20 06:12:11;;;;;;;9.98;9.07;;;;;;;29.22;31.29;93179.59;5069627;28;20177;-73
2023/05/20 06:14:36;;;;;;;10.68;9.68;;;;;;;32.33;29.28;93183.72;5069361;28;20188;-72
2023/05/20 06:17:02;;;;;;;11.48;9.75;;;;;;;34.38;25.96;93199.78;5069429;28;20185;-74
2023/05/20 06:19:28;;;;;;;9.68;8.98;;;;;;;34.52;25.70;93196.06;5070978;28;20223;-72
2023/05/20 06:21:55;;;;;;;13.05;9.88;;;;;;;35.14;25.42;93196.84;5080575;28;20713;-71
2023/05/20 06:24:21;;;;;;;9.75;8.95;;;;;;;33.34;26.96;93176.47;5094083;28;20263;-73
2023/05/20 06:26:48;;;;;;;9.80;9.07;;;;;;;34.67;24.81;93197.31;5098474;28;20215;-71
2023/05/20 06:29:14;;;;;;;9.98;9.18;;;;;;;33.78;24.81;93189.03;5091249;28;20891;-72
2023/05/20 06:31:39;;;;;;;10.25;9.35;;;;;;;35.60;23.37;93185.03;5066939;28;20217;-73
2023/05/20 06:34:05;;;;;;;9.90;8.98;;;;;;;34.38;24.24;93180.81;5073306;28;20261;-72
2023/05/20 06:36:30;;;;;;;11.98;9.52;;;;;;;31.23;28.12;93164.03;5072974;28;20237;-71
2023/05/20 06:38:55;;;;;;;10.60;9.80;;;;;;;27.16;34.51;93147.44;5073191;28;20237;-71
2023/05/20 06:41:21;;;;;;;11.43;10.48;;;;;;;24.17;41.54;93130.41;5072883;28;20223;-72
2023/05/20 06:43:47;;;;;;;10.07;9.27;;;;;;;23.21;43.39;93114.06;5072146;28;20213;-71
2023/05/20 06:46:12;;;;;;;11.48;10.50;;;;;;;22.47;45.98;93124.66;5073037;28;20236;-72
2023/05/20 06:48:38;;;;;;;11.52;10.52;;;;;;;21.82;48.58;93112.50;5073471;28;20192;-70
2023/05/20 06:51:08;;;;;;;12.18;11.13;;;;;;;21.47;50.91;93115.94;5072585;28;20231;-71
2023/05/20 06:53:33;;;;;;;11.52;10.50;;;;;;;20.51;56.28;93117.31;5073260;28;20189;-71
2023/05/20 06:55:59;;;;;;;12.55;11.45;;;;;;;20.59;57.24;93127.06;5072580;28;20239;-72
2023/05/20 06:58:24;;;;;;;13.15;11.95;;;;;;;20.95;52.41;93122.97;5072946;28;20219;-70
2023/05/20 07:00:49;;;;;;;13.63;12.40;;;;;;;20.60;52.06;93126.00;5072171;28;20697;-70
2023/05/20 07:03:15;;;;;;;12.82;11.75;;;;;;;20.67;51.71;93130.75;5061063;28;20195;-71
2023/05/20 07:05:41;;;;;;;17.67;11.60;;;;;;;20.61;54.76;93122.22;5072662;28;20278;-71
2023/05/20 07:08:07;;;;;;;13.05;11.52;;;;;;;20.62;53.46;93130.97;5072826;28;20201;-71
2023/05/20 07:10:33;;;;;;;13.30;11.45;;;;;;;20.54;53.40;93131.81;5072500;28;20224;-72
2023/05/20 07:12:58;;;;;;;12.50;11.50;;;;;;;20.45;53.33;93123.19;5072662;28;20187;-71
2023/05/20 07:15:24;;;;;;;11.90;11.05;;;;;;;20.44;53.53;93121.59;5072363;28;20227;-71
2023/05/20 07:17:49;;;;;;;12.73;11.53;;;;;;;20.26;55.97;93126.31;5072223;28;20192;-72
2023/05/20 07:20:15;;;;;;;12.02;11.02;;;;;;;20.23;56.90;93111.00;5072287;28;20227;-71
2023/05/20 07:22:40;;;;;;;12.43;11.40;;;;;;;20.44;55.96;93126.91;5072832;28;20188;-71
2023/05/20 07:25:06;;;;;;;11.87;11.00;;;;;;;20.43;53.02;93128.03;5072187;28;20236;-71
2023/05/20 07:27:32;;;;;;;12.20;11.30;;;;;;;20.21;53.51;93115.09;5072431;28;20283;-71
2023/05/20 07:29:57;;;;;;;12.37;11.47;;;;;;;20.42;54.42;93103.38;5087601;28;20290;-71
2023/05/20 07:32:23;;;;;;;12.90;11.90;;;;;;;20.26;55.43;93102.44;5056665;28;20273;-72
2023/05/20 07:34:48;;;;;;;12.57;11.48;;;;;;;19.88;57.12;93117.66;5071351;28;20244;-73
2023/05/20 07:37:14;;;;;;;13.15;12.15;;;;;;;20.42;54.84;93118.53;5072604;28;20192;-71
2023/05/20 07:39:40;;;;;;;13.40;12.23;;;;;;;20.52;51.54;93115.44;5071311;28;20196;-71
2023/05/20 07:42:06;;;;;;;13.75;12.65;;;;;;;20.69;55.92;93124.03;5071703;28;20196;-72
2023/05/20 07:44:31;;;;;;;12.80;11.60;;;;;;;20.46;55.20;93112.22;5071890;28;20251;-71
2023/05/20 07:46:56;;;;;;;12.48;11.38;;;;;;;20.33;53.24;93121.22;5071930;28;20185;-71
2023/05/20 07:49:22;;;;;;;12.52;11.63;;;;;;;20.68;53.56;93122.44;5072016;28;20186;-72
2023/05/20 07:51:47;;;;;;;12.25;11.18;;;;;;;20.45;53.43;93094.75;5072086;28;20193;-71
2023/05/20 07:54:14;;;;;;;12.35;11.40;;;;;;;20.82;53.04;93129.34;5072267;28;20225;-72
2023/05/20 07:56:39;;;;;;;12.67;11.67;;;;;;;20.77;51.68;93118.94;5071448;28;20225;-71
2023/05/20 07:59:04;;;;;;;12.70;11.70;;;;;;;20.68;51.09;93119.03;5072228;28;20191;-71
2023/05/20 08:01:30;;;;;;;13.37;12.17;;;;;;;19.87;53.72;93113.47;5071290;28;20210;-72
2023/05/20 08:03:56;;;;;;;13.15;11.80;;;;;;;19.76;55.21;93117.59;5070903;28;20204;-70
2023/05/20 08:06:23;;;;;;;12.33;11.33;;;;;;;19.79;56.52;93110.88;5071337;28;20299;-71
2023/05/20 08:08:48;;;;;;;11.87;10.97;;;;;;;19.73;54.95;93107.66;5072324;28;20187;-71
2023/05/20 08:11:14;;;;;;;12.70;11.70;;;;;;;19.75;55.57;93102.78;5070314;28;20208;-70
2023/05/20 08:13:39;;;;;;;12.30;11.30;;;;;;;20.04;56.98;93104.59;5071686;28;20733;-71
2023/05/20 08:16:05;;;;;;;13.47;12.20;;;;;;;20.21;57.49;93107.16;5070998;28;20212;-72
2023/05/20 08:18:32;;;;;;;12.20;11.10;;;;;;;20.42;54.15;93113.97;5072050;28;20200;-71
2023/05/20 08:20:58;;;;;;;12.18;11.27;;;;;;;19.97;58.08;93097.16;5070913;28;20240;-72
2023/05/20 08:23:24;;;;;;;13.67;12.17;;;;;;;20.18;56.29;93102.50;5071852;28;20189;-71
2023/05/20 08:25:50;;;;;;;13.33;12.07;;;;;;;19.99;58.05;93108.22;5071235;28;20228;-72
2023/05/20 08:28:17;;;;;;;12.43;11.43;;;;;;;19.97;56.89;93110.41;5071440;28;20217;-71
2023/05/20 08:30:43;;;;;;;13.00;12.00;;;;;;;19.86;57.72;93103.19;5070772;28;20304;-71
2023/05/20 08:33:08;;;;;;;14.07;13.03;;;;;;;19.68;58.71;93099.09;5071113;28;20189;-70
2023/05/20 08:35:35;;;;;;;13.67;12.47;;;;;;;19.85;59.68;93093.69;5070407;28;20255;-71
2023/05/20 08:38:00;;;;;;;12.77;11.80;;;;;;;19.88;54.09;93099.13;5070927;28;20237;-69
2023/05/20 08:40:26;;;;;;;13.67;12.47;;;;;;;19.92;55.80;93094.72;5070460;28;20221;-71
2023/05/20 08:42:51;;;;;;;14.40;12.87;;;;;;;19.60;56.92;93087.47;5071224;28;20184;-72
2023/05/20 08:45:19;;;;;;;13.47;12.27;;;;;;;19.63;56.94;93097.41;5070465;28;20291;-71
2023/05/20 08:47:45;;;;;;;12.10;10.53;;;;;;;19.71;55.98;93107.19;5071270;28;20256;-71
2023/05/20 08:50:12;;;;;;;13.67;12.47;;;;;;;20.02;55.85;93099.63;5069527;28;20295;-71
2023/05/20 08:52:46;;;;;;;12.23;11.23;;;;;;;20.13;52.78;93100.00;5071302;28;20243;-71
2023/05/20 08:55:21;;;;;;;12.33;11.43;;;;;;;20.15;54.58;93095.19;5070392;28;20234;-71
2023/05/20 08:57:50;;;;;;;11.97;10.97;;;;;;;20.63;53.27;93112.06;5071149;28;20184;-71
2023/05/20 09:00:15;;;;;;;12.45;11.45;;;;;;;20.40;50.98;93105.59;5070256;28;20230;-72
2023/05/20 09:02:42;;;;;;;13.75;12.15;;;;;;;20.42;52.95;93108.66;5070616;28;20180;-70
2023/05/20 09:05:09;;;;;;;13.47;12.20;;;;;;;20.32;56.14;93087.09;5070012;28;20233;-71
2023/05/20 09:07:35;;;;;;;14.20;12.80;;;;;;;20.07;57.74;93102.09;5070269;28;20185;-71
2023/05/20 09:10:01;;;;;;;13.20;12.05;;;;;;;20.48;55.47;93094.09;5057691;28;20229;-71
2023/05/20 09:12:26;;;;;;;13.50;12.40;;;;;;;20.48;55.20;93070.22;5078331;28;20181;-71
2023/05/20 09:14:52;;;;;;;13.48;12.32;;;;;;;20.62;57.27;93086.63;5057477;28;20233;-71
2023/05/20 09:17:17;;;;;;;13.52;12.32;;;;;;;20.61;53.17;93090.38;5070504;28;20281;-71
2023/05/20 09:19:43;;;;;;;13.20;12.00;;;;;;;20.38;53.66;93077.81;5070040;28;20222;-72
2023/05/20 09:22:08;;;;;;;13.38;12.07;;;;;;;20.16;55.06;93078.97;5070184;28;20181;-71
2023/05/20 09:24:34;;;;;;;13.30;12.07;;;;;;;20.32;58.13;93071.16;5071909;28;20502;-71
2023/05/20 09:26:59;;;;;;;15.17;13.87;;;;;;;21.02;54.26;93070.13;5089876;28;20200;-71
2023/05/20 09:29:25;;;;;;;12.05;11.05;;;;;;;21.18;53.25;93074.47;5089852;28;20185;-71
2023/05/20 09:31:52;;;;;;;13.70;12.30;;;;;;;21.19;51.48;93065.38;5090095;28;20184;-70
2023/05/20 09:34:19;;;;;;;13.13;11.93;;;;;;;20.82;54.97;93073.63;5090853;28;20192;-71
2023/05/20 09:36:49;;;;;;;13.75;12.02;;;;;;;20.92;57.79;93068.63;5089620;28;20310;-71
2023/05/20 09:39:18;;;;;;;12.57;11.43;;;;;;;20.90;51.97;93064.78;5079773;28;20341;-71
2023/05/20 09:42:01;;;;;;;13.07;11.93;;;;;;;20.68;55.37;93066.72;5089154;28;20220;-71
2023/05/20 09:44:28;;;;;;;12.50;11.60;;;;;;;20.45;53.88;93044.34;5089796;28;20211;-71
2023/05/20 09:46:55;;;;;;;13.82;12.52;;;;;;;20.56;53.08;93061.41;5090349;28;20188;-71
2023/05/20 09:49:22;;;;;;;12.38;11.25;;;;;;;20.38;56.04;93059.25;5090428;28;20184;-71
2023/05/20 09:51:49;;;;;;;13.50;12.25;;;;;;;20.31;54.09;93057.13;5089877;28;20207;-71
2023/05/20 09:54:18;;;;;;;12.60;11.37;;;;;;;20.25;55.92;93063.75;5090239;28;20187;-72
2023/05/20 09:56:45;;;;;;;13.83;12.63;;;;;;;20.29;54.56;93019.56;5089258;28;20732;-71
2023/05/20 09:59:10;;;;;;;13.18;12.10;;;;;;;20.06;55.61;93052.81;5090038;28;20188;-72
2023/05/20 10:01:36;;;;;;;20.95;16.50;;;;;;;20.27;55.24;93048.28;5089091;28;20234;-71
2023/05/20 10:04:04;;;;;;;14.98;13.48;;;;;;;20.67;56.46;93041.31;5089987;28;20269;-70
2023/05/20 10:06:33;;;;;;;13.60;11.63;;;;;;;20.76;54.86;93046.53;5071473;28;20230;-71
2023/05/20 10:09:21;;;;;;;12.88;11.88;;;;;;;20.43;53.08;93038.63;5069883;28;20207;-71
2023/05/20 10:12:00;;;;;;;13.60;12.27;;;;;;;20.97;56.27;93033.94;5063525;28;20229;-71
2023/05/20 10:14:35;;;;;;;13.15;12.05;;;;;;;21.26;53.85;93043.59;5069156;28;20188;-71
2023/05/20 10:17:00;;;;;;;16.55;14.85;;;;;;;21.33;52.71;93030.50;5069810;28;20197;-72
2023/05/20 10:19:29;;;;;;;12.60;11.57;;;;;;;21.20;53.42;93026.31;5069243;28;20184;-71
2023/05/20 10:22:04;;;;;;;12.20;11.35;;;;;;;20.81;52.10;93026.94;5069763;28;20208;-71
2023/05/20 10:24:36;;;;;;;12.48;11.57;;;;;;;20.67;50.85;93024.59;5068001;28;20203;-72
2023/05/20 10:27:04;;;;;;;13.43;12.20;;;;;;;20.25;54.62;93031.16;5069683;28;20194;-71
2023/05/20 10:29:42;;;;;;;12.40;11.35;;;;;;;19.98;51.94;93019.22;5069313;28;20191;-72
2023/05/20 10:32:07;;;;;;;14.13;12.70;;;;;;;19.99;53.32;93028.72;5069466;28;20192;-71
2023/05/20 10:34:47;;;;;;;13.47;12.37;;;;;;;20.68;52.82;93016.31;5069271;28;20188;-72
2023/05/20 10:37:24;;;;;;;16.30;14.70;;;;;;;21.35;49.60;93009.69;5068775;28;20252;-72
2023/05/20 10:39:50;;;;;;;37.95;22.92;;;;;;;21.37;50.50;93010.91;5072465;28;20242;-70
2023/05/20 10:42:15;;;;;;;14.07;12.77;;;;;;;21.19;49.48;92998.97;5089241;28;20242;-71
2023/05/20 10:44:45;;;;;;;12.35;11.25;;;;;;;21.11;50.11;92994.56;5088989;28;20240;-72
2023/05/20 10:47:12;;;;;;;15.45;13.93;;;;;;;21.22;49.35;92982.38;5089126;28;20203;-71
2023/05/20 10:49:45;;;;;;;11.45;10.55;;;;;;;21.46;47.50;93008.13;5089001;28;20187;-71
2023/05/20 10:52:12;;;;;;;10.85;10.05;;;;;;;21.48;48.30;92990.72;5088895;28;20193;-71
2023/05/20 10:54:52;;;;;;;16.55;14.80;;;;;;;22.11;49.66;92994.44;5089119;28;20275;-72
2023/05/20 10:57:18;;;;;;;11.98;10.75;;;;;;;22.01;47.30;92994.91;5089343;28;20179;-71
2023/05/20 10:59:43;;;;;;;11.15;10.32;;;;;;;21.51;49.21;92989.31;5085837;28;20259;-71
2023/05/20 11:02:11;;;;;;;11.65;10.32;;;;;;;21.22;49.60;92982.38;5061091;28;20209;-70
2023/05/20 11:04:37;;;;;;;11.88;10.98;;;;;;;21.02;50.95;92987.81;5064975;28;20234;-71
2023/05/20 11:07:03;;;;;;;11.82;10.82;;;;;;;20.80;47.85;92974.97;5068981;28;20250;-72
2023/05/20 11:09:30;;;;;;;11.00;10.10;;;;;;;20.85;50.56;92982.72;5068324;28;20181;-72
2023/05/20 11:11:55;;;;;;;13.02;11.82;;;;;;;21.28;49.45;92985.56;5068881;28;20271;-71